Aviation Digital Data Service (ADDS)

Output produced by METARs form (1004 UTC 20 September 2019)
found at http://aviationweather.gov/metar/data/
 
KGUC 200520Z 2006/2106 26007KT P6SM OVC100 
     FM200900 02006KT P6SM SCT100 
     FM201700 21012G23KT P6SM SCT200 
     FM202200 24020G30KT P6SM SCT100 
     FM210200 25008KT P6SM FEW250